Time;durP1;ratioP1;P1;durP2;ratioP2;P2;SDS_P1;SDS_P2;PMS_P1;PMS_P2;Temp;Humidity;BMP_temperature;BMP_pressure;BME280_temperature;BME280_humidity;BME280_pressure;Samples;Min_cycle;Max_cycle;Signal;HPM_P1;HPM_P2
2023/10/24 00:02:10;;;;;;;64.05;37.92;;;;;;;;;;5043455;28;25076;-62
2023/10/24 00:04:36;;;;;;;63.97;38.55;;;;;;;;;;5044942;28;25053;-62
2023/10/24 00:07:02;;;;;;;50.60;34.20;;;;;;;;;;5043461;28;25052;-62
2023/10/24 00:09:28;;;;;;;69.07;41.95;;;;;;;;;;5043386;28;25068;-62
2023/10/24 00:11:54;;;;;;;51.65;36.88;;;;;;;;;;5040080;28;25069;-60
2023/10/24 00:14:20;;;;;;;52.03;39.30;;;;;;;;;;5046126;28;25135;-61
2023/10/24 00:16:46;;;;;;;61.55;39.45;;;;;;;;;;5042965;28;25188;-61
2023/10/24 00:19:12;;;;;;;42.47;28.58;;;;;;;;;;5040837;28;25109;-60
2023/10/24 00:21:38;;;;;;;65.30;42.45;;;;;;;;;;5041647;28;25048;-61
2023/10/24 00:24:04;;;;;;;52.42;34.42;;;;;;;;;;5047401;28;25146;-61
2023/10/24 00:26:30;;;;;;;63.33;41.55;;;;;;;;;;5043166;28;25066;-60
2023/10/24 00:28:56;;;;;;;71.25;44.90;;;;;;;;;;5047500;28;25120;-59
2023/10/24 00:31:22;;;;;;;60.90;39.72;;;;;;;;;;5047273;28;25087;-61
2023/10/24 00:33:48;;;;;;;61.50;40.05;;;;;;;;;;5047395;28;25097;-61
2023/10/24 00:36:14;;;;;;;43.03;32.33;;;;;;;;;;5046705;28;25057;-61
2023/10/24 00:38:40;;;;;;;53.50;38.25;;;;;;;;;;5040899;28;25062;-61
2023/10/24 00:41:06;;;;;;;45.75;32.88;;;;;;;;;;5044150;28;25071;-61
2023/10/24 00:43:32;;;;;;;36.20;28.80;;;;;;;;;;5047100;28;25090;-61
2023/10/24 00:45:58;;;;;;;56.53;36.63;;;;;;;;;;5039083;28;25086;-61
2023/10/24 00:48:24;;;;;;;35.83;31.98;;;;;;;;;;5044965;28;25115;-59
2023/10/24 00:50:49;;;;;;;61.33;39.35;;;;;;;;;;5047930;28;25055;-60
2023/10/24 00:53:16;;;;;;;42.17;32.85;;;;;;;;;;5040235;28;25068;-60
2023/10/24 00:55:42;;;;;;;52.92;37.47;;;;;;;;;;5040881;28;25095;-60
2023/10/24 00:58:09;;;;;;;43.35;32.55;;;;;;;;;;5045077;28;25063;-61
2023/10/24 01:00:36;;;;;;;46.95;36.33;;;;;;;;;;5040052;28;25136;-61
2023/10/24 01:03:03;;;;;;;38.15;30.35;;;;;;;;;;5049025;28;25069;-60
2023/10/24 01:05:29;;;;;;;61.50;40.55;;;;;;;;;;5044765;28;25068;-61
2023/10/24 01:07:55;;;;;;;41.83;31.92;;;;;;;;;;5040972;28;25072;-60
2023/10/24 01:10:21;;;;;;;56.10;37.15;;;;;;;;;;5042329;28;25061;-61
2023/10/24 01:12:47;;;;;;;44.42;31.92;;;;;;;;;;5047061;28;25062;-60
2023/10/24 01:15:13;;;;;;;39.55;33.60;;;;;;;;;;5036612;28;25060;-62
2023/10/24 01:17:51;;;;;;;45.20;34.65;;;;;;;;;;5038752;28;25134;-59
2023/10/24 01:20:17;;;;;;;40.92;30.65;;;;;;;;;;5038607;28;25265;-61
2023/10/24 01:22:47;;;;;;;47.75;37.38;;;;;;;;;;5037755;28;25137;-61
2023/10/24 01:25:14;;;;;;;47.15;35.42;;;;;;;;;;5040123;28;25120;-59
2023/10/24 01:27:42;;;;;;;37.22;30.13;;;;;;;;;;5035576;28;25117;-60
2023/10/24 01:30:08;;;;;;;43.25;36.25;;;;;;;;;;5037820;28;25100;-60
2023/10/24 01:32:34;;;;;;;39.17;33.03;;;;;;;;;;5046043;28;25075;-60
2023/10/24 01:35:00;;;;;;;37.33;33.08;;;;;;;;;;5046442;28;25084;-60
2023/10/24 01:37:26;;;;;;;54.75;39.50;;;;;;;;;;5041678;28;25074;-60
2023/10/24 01:39:52;;;;;;;47.75;36.95;;;;;;;;;;5042353;28;25065;-59
2023/10/24 01:42:18;;;;;;;38.38;32.25;;;;;;;;;;5044992;28;25153;-61
2023/10/24 01:44:44;;;;;;;38.38;30.10;;;;;;;;;;5048345;28;25059;-59
2023/10/24 01:47:10;;;;;;;39.45;30.95;;;;;;;;;;5046911;28;25088;-62
2023/10/24 01:49:36;;;;;;;33.78;30.20;;;;;;;;;;5043027;28;25077;-60
2023/10/24 01:52:02;;;;;;;41.58;33.85;;;;;;;;;;5038292;28;25084;-60
2023/10/24 01:54:28;;;;;;;39.15;33.55;;;;;;;;;;5046065;28;25072;-62
2023/10/24 01:56:54;;;;;;;35.75;31.65;;;;;;;;;;5046947;28;25093;-60
2023/10/24 01:59:20;;;;;;;44.42;33.83;;;;;;;;;;5040751;28;25104;-60
2023/10/24 02:01:46;;;;;;;36.47;32.67;;;;;;;;;;5040879;28;25070;-60
2023/10/24 02:04:11;;;;;;;46.75;39.60;;;;;;;;;;5039100;28;25058;-61
2023/10/24 02:06:37;;;;;;;48.00;39.50;;;;;;;;;;5041296;28;25052;-61
2023/10/24 02:09:03;;;;;;;48.10;40.90;;;;;;;;;;5045037;28;25045;-60
2023/10/24 02:11:29;;;;;;;50.72;42.75;;;;;;;;;;5036578;28;25077;-62
2023/10/24 02:13:55;;;;;;;52.28;42.22;;;;;;;;;;5039905;28;25073;-61
2023/10/24 02:16:21;;;;;;;53.00;43.50;;;;;;;;;;5043231;28;25142;-59
2023/10/24 02:18:47;;;;;;;50.95;42.22;;;;;;;;;;5041199;28;25129;-59
2023/10/24 02:21:14;;;;;;;47.88;39.97;;;;;;;;;;5039637;28;25060;-60
2023/10/24 02:23:40;;;;;;;51.53;41.40;;;;;;;;;;5045535;28;25050;-60
2023/10/24 02:26:05;;;;;;;47.10;42.03;;;;;;;;;;5043000;28;25052;-61
2023/10/24 02:28:32;;;;;;;49.20;42.05;;;;;;;;;;5042912;28;25113;-60
2023/10/24 02:31:01;;;;;;;44.40;39.45;;;;;;;;;;5036083;28;25066;-61
2023/10/24 02:33:27;;;;;;;52.30;42.10;;;;;;;;;;5043642;28;25065;-60
2023/10/24 02:35:53;;;;;;;50.53;44.00;;;;;;;;;;5038102;28;25093;-59
2023/10/24 02:38:19;;;;;;;44.72;40.10;;;;;;;;;;5042004;28;25051;-60
2023/10/24 02:40:55;;;;;;;44.67;39.92;;;;;;;;;;5045358;28;25147;-59
2023/10/24 02:43:21;;;;;;;52.72;43.22;;;;;;;;;;5047160;28;25055;-60
2023/10/24 02:45:47;;;;;;;47.38;41.70;;;;;;;;;;5045057;28;25110;-60
2023/10/24 02:48:13;;;;;;;43.85;39.05;;;;;;;;;;5035393;28;25074;-59
2023/10/24 02:50:42;;;;;;;42.75;38.17;;;;;;;;;;5047650;28;25090;-59
2023/10/24 02:53:08;;;;;;;43.38;38.75;;;;;;;;;;5044769;28;25065;-59
2023/10/24 02:55:34;;;;;;;43.72;39.05;;;;;;;;;;5044660;28;25077;-61
2023/10/24 02:58:00;;;;;;;43.40;38.88;;;;;;;;;;5045270;28;25062;-61
2023/10/24 03:00:26;;;;;;;42.30;37.92;;;;;;;;;;5048543;28;25065;-59
2023/10/24 03:02:52;;;;;;;41.50;37.17;;;;;;;;;;5046554;28;25087;-60
2023/10/24 03:05:19;;;;;;;40.92;36.65;;;;;;;;;;5046570;28;25137;-60
2023/10/24 03:07:45;;;;;;;40.85;36.95;;;;;;;;;;5024905;28;25073;-61
2023/10/24 03:10:11;;;;;;;40.45;36.55;;;;;;;;;;5021041;28;25069;-59
2023/10/24 03:12:37;;;;;;;41.35;37.15;;;;;;;;;;5013259;28;25079;-60
2023/10/24 03:15:03;;;;;;;43.20;38.92;;;;;;;;;;5020798;28;25100;-61
2023/10/24 03:17:28;;;;;;;40.30;36.50;;;;;;;;;;5022825;28;25064;-61
2023/10/24 03:19:55;;;;;;;41.22;37.33;;;;;;;;;;5023447;28;25067;-60
2023/10/24 03:22:22;;;;;;;40.28;36.53;;;;;;;;;;5022568;28;25081;-60
2023/10/24 03:24:49;;;;;;;43.70;39.28;;;;;;;;;;5027445;28;25165;-60
2023/10/24 03:27:17;;;;;;;45.83;41.22;;;;;;;;;;5022716;28;25081;-60
2023/10/24 03:29:43;;;;;;;44.78;40.15;;;;;;;;;;5013228;28;25061;-61
2023/10/24 03:32:09;;;;;;;43.55;39.47;;;;;;;;;;5018297;28;25070;-60
2023/10/24 03:34:38;;;;;;;43.28;39.13;;;;;;;;;;5028954;28;25053;-60
2023/10/24 03:37:05;;;;;;;47.20;42.22;;;;;;;;;;5014628;28;25109;-60
2023/10/24 03:39:31;;;;;;;48.45;42.80;;;;;;;;;;5017981;28;25065;-63
2023/10/24 03:41:57;;;;;;;51.10;45.58;;;;;;;;;;5022786;28;25088;-60
2023/10/24 03:44:23;;;;;;;45.53;41.20;;;;;;;;;;5018587;28;25076;-60
2023/10/24 03:46:49;;;;;;;49.58;44.22;;;;;;;;;;5013332;28;25085;-59
2023/10/24 03:49:15;;;;;;;57.45;46.83;;;;;;;;;;5016628;28;26191;-60
2023/10/24 03:51:41;;;;;;;46.80;42.13;;;;;;;;;;5024869;28;25086;-60
2023/10/24 03:54:07;;;;;;;46.30;41.40;;;;;;;;;;5038492;28;25085;-60
2023/10/24 03:56:33;;;;;;;53.90;46.53;;;;;;;;;;5043358;28;25078;-60
2023/10/24 03:58:59;;;;;;;46.83;42.03;;;;;;;;;;5051558;28;25065;-60
2023/10/24 04:01:25;;;;;;;47.78;42.75;;;;;;;;;;5051363;28;25068;-61
2023/10/24 04:03:52;;;;;;;44.03;39.63;;;;;;;;;;5053538;28;25071;-60
2023/10/24 04:06:18;;;;;;;44.38;39.78;;;;;;;;;;5048399;28;25056;-58
2023/10/24 04:08:44;;;;;;;43.58;39.38;;;;;;;;;;5039932;28;25091;-60
2023/10/24 04:11:17;;;;;;;44.95;40.53;;;;;;;;;;5023457;28;25076;-60
2023/10/24 04:13:43;;;;;;;43.78;39.45;;;;;;;;;;5029991;28;25151;-59
2023/10/24 04:16:10;;;;;;;42.60;38.42;;;;;;;;;;5024086;28;25109;-60
2023/10/24 04:18:36;;;;;;;43.70;38.95;;;;;;;;;;5024301;28;25125;-59
2023/10/24 04:21:02;;;;;;;39.05;35.35;;;;;;;;;;5034694;28;25138;-59
2023/10/24 04:23:28;;;;;;;36.15;32.78;;;;;;;;;;5050103;28;25043;-59
2023/10/24 04:25:54;;;;;;;36.22;32.67;;;;;;;;;;5048644;28;25062;-61
2023/10/24 04:28:20;;;;;;;39.75;35.80;;;;;;;;;;5049608;28;25069;-60
2023/10/24 04:30:46;;;;;;;36.58;33.13;;;;;;;;;;5047659;28;25135;-61
2023/10/24 04:33:13;;;;;;;33.90;30.88;;;;;;;;;;5046607;28;25073;-61
2023/10/24 04:35:43;;;;;;;35.20;32.15;;;;;;;;;;5045228;28;25067;-60
2023/10/24 04:38:12;;;;;;;35.20;31.92;;;;;;;;;;5047683;28;25055;-60
2023/10/24 04:40:39;;;;;;;36.83;33.15;;;;;;;;;;5046892;28;25139;-60
2023/10/24 04:43:06;;;;;;;35.13;32.08;;;;;;;;;;5048576;28;25061;-61
2023/10/24 04:45:32;;;;;;;35.33;32.03;;;;;;;;;;5043588;28;25064;-62
2023/10/24 04:48:01;;;;;;;32.95;30.25;;;;;;;;;;5036787;28;25056;-60
2023/10/24 04:50:27;;;;;;;33.45;30.17;;;;;;;;;;5028808;28;25092;-60
2023/10/24 04:52:54;;;;;;;35.08;31.67;;;;;;;;;;5036798;28;25167;-59
2023/10/24 04:55:20;;;;;;;33.80;30.83;;;;;;;;;;5040547;28;25052;-60
2023/10/24 04:57:46;;;;;;;35.20;31.83;;;;;;;;;;5039746;28;25119;-60
2023/10/24 05:00:13;;;;;;;38.53;34.53;;;;;;;;;;5040985;28;25379;-60
2023/10/24 05:02:39;;;;;;;33.33;30.30;;;;;;;;;;5047206;28;25149;-60
2023/10/24 05:05:06;;;;;;;34.92;31.73;;;;;;;;;;5042581;28;25083;-60
2023/10/24 05:07:32;;;;;;;31.33;28.23;;;;;;;;;;5036946;28;25074;-60
2023/10/24 05:09:58;;;;;;;31.63;28.77;;;;;;;;;;5041456;28;25069;-60
2023/10/24 05:12:24;;;;;;;31.88;29.10;;;;;;;;;;5040940;28;25044;-60
2023/10/24 05:14:50;;;;;;;33.53;30.50;;;;;;;;;;5044574;28;25073;-60
2023/10/24 05:17:16;;;;;;;33.40;30.50;;;;;;;;;;5046637;28;25074;-59
2023/10/24 05:19:42;;;;;;;34.65;31.13;;;;;;;;;;5046870;28;25057;-61
2023/10/24 05:22:09;;;;;;;36.47;33.00;;;;;;;;;;5044769;28;25059;-60
2023/10/24 05:24:35;;;;;;;34.85;31.65;;;;;;;;;;5039071;28;25067;-60
2023/10/24 05:27:01;;;;;;;31.50;28.45;;;;;;;;;;5045094;28;25071;-60
2023/10/24 05:29:27;;;;;;;32.00;28.65;;;;;;;;;;5043515;28;25069;-59
2023/10/24 05:31:53;;;;;;;34.00;31.00;;;;;;;;;;5042600;28;25056;-60
2023/10/24 05:34:19;;;;;;;31.45;28.75;;;;;;;;;;5041049;28;25171;-60
2023/10/24 05:36:45;;;;;;;30.90;28.27;;;;;;;;;;5045855;28;25111;-60
2023/10/24 05:39:11;;;;;;;35.33;31.77;;;;;;;;;;5050876;28;25061;-59
2023/10/24 05:41:37;;;;;;;32.67;29.77;;;;;;;;;;5047308;28;25087;-59
2023/10/24 05:44:03;;;;;;;31.08;28.15;;;;;;;;;;5046288;28;25063;-60
2023/10/24 05:46:29;;;;;;;32.53;29.63;;;;;;;;;;5047285;28;25048;-60
2023/10/24 05:48:55;;;;;;;27.58;25.15;;;;;;;;;;5050465;28;24889;-59
2023/10/24 05:51:36;;;;;;;27.58;24.90;;;;;;;;;;5011071;28;25095;-60
2023/10/24 05:54:02;;;;;;;34.22;30.67;;;;;;;;;;5033402;28;25098;-60
2023/10/24 05:56:28;;;;;;;32.05;29.02;;;;;;;;;;5026060;28;25097;-59
2023/10/24 05:58:54;;;;;;;31.55;28.17;;;;;;;;;;5038156;28;25104;-60
2023/10/24 06:01:20;;;;;;;29.25;26.42;;;;;;;;;;5044855;28;25059;-60
2023/10/24 06:03:47;;;;;;;31.13;27.92;;;;;;;;;;5039888;28;25099;-60
2023/10/24 06:06:13;;;;;;;31.15;28.25;;;;;;;;;;5044050;28;25146;-59
2023/10/24 06:08:39;;;;;;;30.55;27.67;;;;;;;;;;5045188;28;25049;-60
2023/10/24 06:11:05;;;;;;;27.80;25.20;;;;;;;;;;5045628;28;25107;-60
2023/10/24 06:13:34;;;;;;;30.80;27.80;;;;;;;;;;5042855;28;25094;-60
2023/10/24 06:16:11;;;;;;;29.27;26.30;;;;;;;;;;5049629;28;25078;-61
2023/10/24 06:18:37;;;;;;;29.48;26.80;;;;;;;;;;5042731;28;25065;-60
2023/10/24 06:21:04;;;;;;;31.48;28.17;;;;;;;;;;5046413;28;25060;-60
2023/10/24 06:23:30;;;;;;;29.10;26.27;;;;;;;;;;5049597;28;25062;-59
2023/10/24 06:25:56;;;;;;;31.88;28.70;;;;;;;;;;5043887;28;25100;-58
2023/10/24 06:28:22;;;;;;;30.83;27.95;;;;;;;;;;5047770;28;25140;-59
2023/10/24 06:30:49;;;;;;;31.38;28.63;;;;;;;;;;5050269;28;25093;-61
2023/10/24 06:33:15;;;;;;;34.83;31.27;;;;;;;;;;5045345;28;25075;-60
2023/10/24 06:35:41;;;;;;;30.65;27.83;;;;;;;;;;5050669;28;25149;-60
2023/10/24 06:38:07;;;;;;;33.13;29.52;;;;;;;;;;5045907;28;25096;-59
2023/10/24 06:40:33;;;;;;;32.65;29.48;;;;;;;;;;5050721;28;25079;-60
2023/10/24 06:43:02;;;;;;;32.13;29.23;;;;;;;;;;5045203;28;25086;-59
2023/10/24 06:45:28;;;;;;;30.00;27.15;;;;;;;;;;5045856;28;25104;-60
2023/10/24 06:47:54;;;;;;;31.15;28.30;;;;;;;;;;5044373;28;25057;-60
2023/10/24 06:50:19;;;;;;;30.67;27.90;;;;;;;;;;5045510;28;25070;-60
2023/10/24 06:52:45;;;;;;;30.75;27.95;;;;;;;;;;5043538;28;25069;-59
2023/10/24 06:55:11;;;;;;;30.52;27.90;;;;;;;;;;5039360;28;25058;-59
2023/10/24 06:57:37;;;;;;;29.38;26.73;;;;;;;;;;5041154;28;25060;-59
2023/10/24 07:00:04;;;;;;;31.75;28.85;;;;;;;;;;5046186;28;25060;-62
2023/10/24 07:02:33;;;;;;;27.70;25.05;;;;;;;;;;5045535;28;25072;-60
2023/10/24 07:05:00;;;;;;;30.08;27.17;;;;;;;;;;5043038;28;25068;-60
2023/10/24 07:07:26;;;;;;;30.67;27.80;;;;;;;;;;5041995;28;25122;-59
2023/10/24 07:09:52;;;;;;;31.30;28.00;;;;;;;;;;5045687;28;25097;-60
2023/10/24 07:12:18;;;;;;;31.60;28.50;;;;;;;;;;5043470;28;25059;-60
2023/10/24 07:14:44;;;;;;;31.52;28.55;;;;;;;;;;5046003;28;25071;-61
2023/10/24 07:17:10;;;;;;;36.33;32.75;;;;;;;;;;5048644;28;25080;-59
2023/10/24 07:19:36;;;;;;;35.35;32.08;;;;;;;;;;5045946;28;25089;-59
2023/10/24 07:22:02;;;;;;;35.55;31.92;;;;;;;;;;5045825;28;25086;-60
2023/10/24 07:24:28;;;;;;;37.10;33.45;;;;;;;;;;5043896;28;25067;-61
2023/10/24 07:26:54;;;;;;;36.75;33.15;;;;;;;;;;5041183;28;25059;-60
2023/10/24 07:29:21;;;;;;;33.47;30.33;;;;;;;;;;5044825;28;25108;-61
2023/10/24 07:31:47;;;;;;;34.33;30.88;;;;;;;;;;5044173;28;25068;-59
2023/10/24 07:34:13;;;;;;;35.00;31.35;;;;;;;;;;5042937;28;25055;-60
2023/10/24 07:36:38;;;;;;;35.22;31.85;;;;;;;;;;5042876;28;25101;-60
2023/10/24 07:39:05;;;;;;;35.53;32.03;;;;;;;;;;5050944;28;25073;-59
2023/10/24 07:41:31;;;;;;;32.88;29.63;;;;;;;;;;5044992;28;25057;-59
2023/10/24 07:43:57;;;;;;;32.70;29.40;;;;;;;;;;5044518;28;25069;-60
2023/10/24 07:46:23;;;;;;;32.95;29.30;;;;;;;;;;5048302;28;25107;-60
2023/10/24 07:48:52;;;;;;;30.98;27.88;;;;;;;;;;5049254;28;25117;-59
2023/10/24 07:51:18;;;;;;;29.50;26.45;;;;;;;;;;5048266;28;25071;-59
2023/10/24 07:53:44;;;;;;;29.33;26.35;;;;;;;;;;5045022;28;25047;-60
2023/10/24 07:56:10;;;;;;;29.15;26.10;;;;;;;;;;5046420;28;25084;-59
2023/10/24 07:58:36;;;;;;;28.92;25.92;;;;;;;;;;5048285;28;25085;-59
2023/10/24 08:01:04;;;;;;;27.23;24.60;;;;;;;;;;5047128;28;25054;-59
2023/10/24 08:03:30;;;;;;;25.85;23.45;;;;;;;;;;5046575;28;25064;-62
2023/10/24 08:05:56;;;;;;;26.85;24.15;;;;;;;;;;5045170;28;25058;-60
2023/10/24 08:08:22;;;;;;;27.02;24.40;;;;;;;;;;5046880;28;25076;-60
2023/10/24 08:10:48;;;;;;;27.42;24.88;;;;;;;;;;5048095;28;25070;-60
2023/10/24 08:13:14;;;;;;;27.38;24.88;;;;;;;;;;5042228;28;25105;-59
2023/10/24 08:15:40;;;;;;;27.70;24.95;;;;;;;;;;5048075;28;25162;-60
2023/10/24 08:18:06;;;;;;;27.13;24.50;;;;;;;;;;5039869;28;25062;-60
2023/10/24 08:20:32;;;;;;;27.17;24.40;;;;;;;;;;5043472;28;25080;-59
2023/10/24 08:22:58;;;;;;;24.63;22.10;;;;;;;;;;5045915;28;25068;-59
2023/10/24 08:25:24;;;;;;;24.77;22.48;;;;;;;;;;5048860;28;25071;-61
2023/10/24 08:27:50;;;;;;;24.70;22.23;;;;;;;;;;5049517;28;25074;-60
2023/10/24 08:30:16;;;;;;;25.23;22.65;;;;;;;;;;5047246;28;25077;-59
2023/10/24 08:32:42;;;;;;;23.80;21.38;;;;;;;;;;5045495;28;25089;-59
2023/10/24 08:35:08;;;;;;;21.95;19.90;;;;;;;;;;5048702;28;25131;-60
2023/10/24 08:37:35;;;;;;;21.77;19.67;;;;;;;;;;5049497;28;25057;-62
2023/10/24 08:40:01;;;;;;;20.63;18.63;;;;;;;;;;5048028;28;25098;-61
2023/10/24 08:42:29;;;;;;;18.80;16.73;;;;;;;;;;5045673;28;25055;-63
2023/10/24 08:44:55;;;;;;;18.05;16.30;;;;;;;;;;5044237;28;25093;-60
2023/10/24 08:47:22;;;;;;;17.48;15.20;;;;;;;;;;5052185;28;25071;-60
2023/10/24 08:49:48;;;;;;;18.38;16.42;;;;;;;;;;5046813;28;25072;-59
2023/10/24 08:52:14;;;;;;;16.80;15.10;;;;;;;;;;5054824;28;25078;-60
2023/10/24 08:54:40;;;;;;;16.52;14.82;;;;;;;;;;5045725;28;25099;-60
2023/10/24 08:57:07;;;;;;;21.00;14.40;;;;;;;;;;5056543;28;25071;-60
2023/10/24 08:59:38;;;;;;;19.23;15.65;;;;;;;;;;5052590;28;25052;-60
2023/10/24 09:02:04;;;;;;;19.55;14.15;;;;;;;;;;5054945;28;25093;-60
2023/10/24 09:04:33;;;;;;;16.25;13.20;;;;;;;;;;5055046;28;25081;-61
2023/10/24 09:06:59;;;;;;;15.38;13.77;;;;;;;;;;5050941;28;25061;-61
2023/10/24 09:09:25;;;;;;;16.77;14.65;;;;;;;;;;5051420;28;25057;-60
2023/10/24 09:12:02;;;;;;;19.10;14.90;;;;;;;;;;5047148;28;25066;-59
2023/10/24 09:14:29;;;;;;;17.23;14.90;;;;;;;;;;5045573;28;25169;-60
2023/10/24 09:16:58;;;;;;;17.05;14.93;;;;;;;;;;5049210;28;25079;-59
2023/10/24 09:19:24;;;;;;;17.45;14.95;;;;;;;;;;5049509;28;25093;-61
2023/10/24 09:21:51;;;;;;;18.98;15.20;;;;;;;;;;5049271;28;25110;-61
2023/10/24 09:24:17;;;;;;;17.13;15.35;;;;;;;;;;5044700;28;25065;-60
2023/10/24 09:26:56;;;;;;;18.85;14.82;;;;;;;;;;5048476;28;25052;-61
2023/10/24 09:29:24;;;;;;;18.30;16.35;;;;;;;;;;5049161;28;25082;-60
2023/10/24 09:31:50;;;;;;;20.80;16.63;;;;;;;;;;5045231;28;25105;-60
2023/10/24 09:34:17;;;;;;;22.60;17.02;;;;;;;;;;5048578;28;25065;-59
2023/10/24 09:36:43;;;;;;;17.88;16.05;;;;;;;;;;5041313;28;25067;-60
2023/10/24 09:39:10;;;;;;;21.73;16.25;;;;;;;;;;5048164;28;25082;-59
2023/10/24 09:41:36;;;;;;;19.30;17.40;;;;;;;;;;5049516;28;25168;-60
2023/10/24 09:44:03;;;;;;;18.25;16.45;;;;;;;;;;5048446;28;25076;-60
2023/10/24 09:46:29;;;;;;;21.52;15.90;;;;;;;;;;5049567;28;25075;-59
2023/10/24 09:48:59;;;;;;;18.60;15.40;;;;;;;;;;5048378;28;25078;-59
2023/10/24 09:51:25;;;;;;;17.67;15.80;;;;;;;;;;5046966;28;25054;-61
2023/10/24 09:53:51;;;;;;;19.35;15.43;;;;;;;;;;5044154;28;25143;-60
2023/10/24 09:56:18;;;;;;;18.88;15.70;;;;;;;;;;5041600;28;25126;-60
2023/10/24 09:58:44;;;;;;;16.33;14.68;;;;;;;;;;5040952;28;25083;-61
2023/10/24 10:01:10;;;;;;;17.55;15.68;;;;;;;;;;5048273;28;25055;-60
2023/10/24 10:03:36;;;;;;;20.15;16.27;;;;;;;;;;5049876;28;25060;-60
2023/10/24 10:06:06;;;;;;;21.80;16.85;;;;;;;;;;5044744;28;25080;-59
2023/10/24 10:08:40;;;;;;;18.92;16.67;;;;;;;;;;5047747;28;25053;-62
2023/10/24 10:11:06;;;;;;;21.58;16.73;;;;;;;;;;5046285;28;25065;-59
2023/10/24 10:13:38;;;;;;;24.02;17.08;;;;;;;;;;5044866;28;25060;-60
2023/10/24 10:16:04;;;;;;;17.63;15.83;;;;;;;;;;5045228;28;25142;-61
2023/10/24 10:18:46;;;;;;;18.30;15.52;;;;;;;;;;5048486;28;25066;-59
2023/10/24 10:21:12;;;;;;;17.73;15.90;;;;;;;;;;5050659;28;25077;-59
2023/10/24 10:23:50;;;;;;;18.85;16.13;;;;;;;;;;5044245;28;25092;-60
2023/10/24 10:26:23;;;;;;;18.48;16.75;;;;;;;;;;5046790;28;25065;-60
2023/10/24 10:29:04;;;;;;;19.27;16.42;;;;;;;;;;5040452;28;25066;-60
2023/10/24 10:31:39;;;;;;;17.50;15.68;;;;;;;;;;5028627;28;25124;-60
2023/10/24 10:34:05;;;;;;;19.60;17.08;;;;;;;;;;5039505;28;25155;-59
2023/10/24 10:36:31;;;;;;;18.02;16.33;;;;;;;;;;5041735;28;25167;-59
2023/10/24 10:39:05;;;;;;;19.55;15.13;;;;;;;;;;5045652;28;25086;-59
2023/10/24 10:41:32;;;;;;;17.13;14.52;;;;;;;;;;5045914;28;25078;-60
2023/10/24 10:44:00;;;;;;;15.20;13.70;;;;;;;;;;5044045;28;25062;-60
2023/10/24 10:46:27;;;;;;;16.30;14.93;;;;;;;;;;5044860;28;25082;-60
2023/10/24 10:49:00;;;;;;;16.80;15.43;;;;;;;;;;5040090;28;25087;-60
2023/10/24 10:51:26;;;;;;;;;;;;;;;;;;5044496;28;25136;-59
2023/10/24 10:54:11;;;;;;;17.10;15.90;;;;;;;;;;5046998;28;24116;-61
2023/10/24 10:56:38;;;;;;;19.83;18.20;;;;;;;;;;5045474;28;25052;-60
2023/10/24 10:59:04;;;;;;;21.38;19.67;;;;;;;;;;5042816;28;25073;-60
2023/10/24 11:01:37;;;;;;;22.08;20.48;;;;;;;;;;5045437;28;25097;-61
2023/10/24 11:04:12;;;;;;;24.63;22.67;;;;;;;;;;5044986;28;25060;-62
2023/10/24 11:06:41;;;;;;;25.98;24.00;;;;;;;;;;5044034;28;25056;-60
2023/10/24 11:09:07;;;;;;;27.23;25.15;;;;;;;;;;5043931;28;25058;-60
2023/10/24 11:11:33;;;;;;;26.27;24.27;;;;;;;;;;5048874;28;25074;-60
2023/10/24 11:14:19;;;;;;;25.45;23.65;;;;;;;;;;5048170;28;25060;-60
2023/10/24 11:16:46;;;;;;;25.30;23.27;;;;;;;;;;5048489;28;25054;-61
2023/10/24 11:19:24;;;;;;;28.70;26.27;;;;;;;;;;5050730;28;25058;-61
2023/10/24 11:21:51;;;;;;;25.67;23.45;;;;;;;;;;5048567;28;25142;-59
2023/10/24 11:24:19;;;;;;;22.52;20.65;;;;;;;;;;5053184;28;25053;-60
2023/10/24 11:26:45;;;;;;;22.77;20.85;;;;;;;;;;5052055;28;25066;-61
2023/10/24 11:29:13;;;;;;;22.42;20.80;;;;;;;;;;5048413;28;25065;-60
2023/10/24 11:31:39;;;;;;;20.48;19.17;;;;;;;;;;5049100;28;25128;-60
2023/10/24 11:34:05;;;;;;;20.75;19.35;;;;;;;;;;5040564;28;25103;-61
2023/10/24 11:36:31;;;;;;;21.83;20.15;;;;;;;;;;5049181;28;25069;-60
2023/10/24 11:38:58;;;;;;;21.92;20.33;;;;;;;;;;5035973;28;25063;-60
2023/10/24 11:41:24;;;;;;;22.35;20.73;;;;;;;;;;5029348;28;25049;-60
2023/10/24 11:43:51;;;;;;;22.13;20.35;;;;;;;;;;5043805;28;25088;-60
2023/10/24 11:46:17;;;;;;;20.30;18.80;;;;;;;;;;5026543;28;25047;-60
2023/10/24 11:48:43;;;;;;;18.80;17.52;;;;;;;;;;5021501;28;25127;-60
2023/10/24 11:51:09;;;;;;;19.45;17.88;;;;;;;;;;5028557;28;25079;-61
2023/10/24 11:53:35;;;;;;;19.23;17.90;;;;;;;;;;5039805;28;25051;-60
2023/10/24 11:56:01;;;;;;;19.08;17.73;;;;;;;;;;5047440;28;25043;-61
2023/10/24 11:58:31;;;;;;;18.20;16.85;;;;;;;;;;5048093;28;25056;-60
2023/10/24 12:00:58;;;;;;;17.25;16.00;;;;;;;;;;5024774;28;25146;-61
2023/10/24 12:03:24;;;;;;;18.40;17.20;;;;;;;;;;5026693;28;25066;-60
2023/10/24 12:05:52;;;;;;;18.92;17.40;;;;;;;;;;5026156;28;25041;-60
2023/10/24 12:08:23;;;;;;;17.05;15.95;;;;;;;;;;5022000;28;25082;-60
2023/10/24 12:10:53;;;;;;;15.50;14.60;;;;;;;;;;5028963;28;25068;-61
2023/10/24 12:13:19;;;;;;;15.52;14.32;;;;;;;;;;5018894;28;25160;-63
2023/10/24 12:15:47;;;;;;;14.15;13.23;;;;;;;;;;5014478;28;25070;-61
2023/10/24 12:18:13;;;;;;;13.57;12.57;;;;;;;;;;5017715;28;25075;-60
2023/10/24 12:20:38;;;;;;;14.45;13.55;;;;;;;;;;5018850;28;25114;-61
2023/10/24 12:23:04;;;;;;;14.00;12.88;;;;;;;;;;5011727;28;25086;-60
2023/10/24 12:25:32;;;;;;;15.90;14.52;;;;;;;;;;5017069;28;25067;-61
2023/10/24 12:27:59;;;;;;;15.82;14.73;;;;;;;;;;5017772;28;25092;-61
2023/10/24 12:30:24;;;;;;;14.38;13.38;;;;;;;;;;5011253;28;25166;-61
2023/10/24 12:32:50;;;;;;;13.68;12.63;;;;;;;;;;5026731;28;25096;-61
2023/10/24 12:35:16;;;;;;;15.32;14.02;;;;;;;;;;5043763;28;25111;-64
2023/10/24 12:37:43;;;;;;;14.90;13.85;;;;;;;;;;5045757;28;25081;-60
2023/10/24 12:40:10;;;;;;;12.73;11.70;;;;;;;;;;5039316;28;25071;-60
2023/10/24 12:42:36;;;;;;;14.90;13.55;;;;;;;;;;5046507;28;25072;-61
2023/10/24 12:45:02;;;;;;;12.95;12.05;;;;;;;;;;5038114;28;25070;-61
2023/10/24 12:47:28;;;;;;;12.95;11.95;;;;;;;;;;5038879;28;25047;-60
2023/10/24 12:49:54;;;;;;;13.30;12.52;;;;;;;;;;5041951;28;25130;-59
2023/10/24 12:52:20;;;;;;;14.25;13.20;;;;;;;;;;5030807;28;25052;-61
2023/10/24 12:54:46;;;;;;;13.93;12.73;;;;;;;;;;5038806;28;25132;-61
2023/10/24 12:57:12;;;;;;;12.90;12.00;;;;;;;;;;5032985;28;25090;-60
2023/10/24 12:59:38;;;;;;;13.55;12.55;;;;;;;;;;5038789;28;25128;-61
2023/10/24 13:02:05;;;;;;;13.77;12.77;;;;;;;;;;5043097;28;25060;-62
2023/10/24 13:04:31;;;;;;;15.02;13.45;;;;;;;;;;5037865;28;25126;-60
2023/10/24 13:06:57;;;;;;;14.80;13.57;;;;;;;;;;5031677;28;25074;-61
2023/10/24 13:09:28;;;;;;;13.20;12.30;;;;;;;;;;5031304;28;25045;-60
2023/10/24 13:11:55;;;;;;;14.95;13.63;;;;;;;;;;5034362;28;25042;-60
2023/10/24 13:14:21;;;;;;;13.55;12.40;;;;;;;;;;5033428;28;25070;-60
2023/10/24 13:16:47;;;;;;;13.35;12.25;;;;;;;;;;5039673;28;25080;-60
2023/10/24 13:19:13;;;;;;;12.48;11.48;;;;;;;;;;5044335;28;25146;-61
2023/10/24 13:21:39;;;;;;;12.32;11.27;;;;;;;;;;5030351;28;25071;-60
2023/10/24 13:24:05;;;;;;;13.18;12.18;;;;;;;;;;5042089;28;25065;-61
2023/10/24 13:26:32;;;;;;;13.85;12.80;;;;;;;;;;5032390;28;25144;-61
2023/10/24 13:28:58;;;;;;;12.98;11.88;;;;;;;;;;5034789;28;25049;-60
2023/10/24 13:31:24;;;;;;;12.95;11.95;;;;;;;;;;5044362;28;25129;-60
2023/10/24 13:33:50;;;;;;;15.30;14.00;;;;;;;;;;5039338;28;25073;-60
2023/10/24 13:36:16;;;;;;;12.75;11.90;;;;;;;;;;5037781;28;25082;-61
2023/10/24 13:38:42;;;;;;;14.35;13.05;;;;;;;;;;5031252;28;25148;-61
2023/10/24 13:41:08;;;;;;;14.23;12.88;;;;;;;;;;5038577;28;25086;-60
2023/10/24 13:43:34;;;;;;;14.23;12.80;;;;;;;;;;5033870;28;25160;-61
2023/10/24 13:46:01;;;;;;;13.20;11.80;;;;;;;;;;5035985;28;25064;-60
2023/10/24 13:48:27;;;;;;;11.80;10.82;;;;;;;;;;5039819;28;25085;-61
2023/10/24 13:50:53;;;;;;;12.35;11.50;;;;;;;;;;5040179;28;25067;-59
2023/10/24 13:53:19;;;;;;;12.07;11.07;;;;;;;;;;5033045;28;25063;-60
2023/10/24 13:55:45;;;;;;;11.23;10.40;;;;;;;;;;5028124;28;25091;-61
2023/10/24 13:58:11;;;;;;;12.30;11.30;;;;;;;;;;5037116;28;25169;-60
2023/10/24 14:00:37;;;;;;;9.20;8.18;;;;;;;;;;5043956;28;25105;-60
2023/10/24 14:03:05;;;;;;;9.32;8.40;;;;;;;;;;5043999;28;25059;-61
2023/10/24 14:05:31;;;;;;;8.05;7.05;;;;;;;;;;5033729;28;25055;-60
2023/10/24 14:07:57;;;;;;;6.00;5.50;;;;;;;;;;5032963;28;25063;-60
2023/10/24 14:10:23;;;;;;;4.93;4.38;;;;;;;;;;5044374;28;25104;-61
2023/10/24 14:12:49;;;;;;;4.30;2.42;;;;;;;;;;5036946;28;25084;-60
2023/10/24 14:15:15;;;;;;;6.53;2.08;;;;;;;;;;5038327;28;25068;-62
2023/10/24 14:17:41;;;;;;;2.67;1.70;;;;;;;;;;5039082;28;25101;-61